Terminal Aerodrome Forecast
Issued by NWS Sioux Falls, SD

Home | Current Version | Previous Version | Graphics & Text | Print | Product List | Glossary On
Versions: 1 2 3 4 5 6 7 8 9 10 11 12 13 14 15 16 17 18 19
000
FTUS43 KFSD 291720
TAFFSD
TAF
KFSD 291720Z 2918/3018 VRB03KT P6SM BKN007 OVC030
     FM292000 33004KT P6SM SCT015 BKN030
     FM300200 33004KT P6SM BKN050
     FM300900 33006KT 4SM BR SKC
      TEMPO 3010/3014 33005KT 1 1/2SM BR OVC003
     FM301400 33005KT 4SM BR SKC
     FM301600 35005KT P6SM FEW250=

USA.gov is the U.S. government's official web portal to all federal, state and local government web resources and services.